sensor_id;sensor_type;location;lat;lon;timestamp;temperature;humidity
2999;DHT22;1509;51.964;7.628;2023-04-06T00:00:53;5.50;99.90
2999;DHT22;1509;51.964;7.628;2023-04-06T00:03:18;5.50;99.90
2999;DHT22;1509;51.964;7.628;2023-04-06T00:05:44;5.40;99.90
2999;DHT22;1509;51.964;7.628;2023-04-06T00:08:10;5.40;99.90
2999;DHT22;1509;51.964;7.628;2023-04-06T00:10:36;5.40;99.90
2999;DHT22;1509;51.964;7.628;2023-04-06T00:13:05;5.40;99.90
2999;DHT22;1509;51.964;7.628;2023-04-06T00:15:31;5.40;99.90
2999;DHT22;1509;51.964;7.628;2023-04-06T00:17:57;5.30;99.90
2999;DHT22;1509;51.964;7.628;2023-04-06T00:20:23;5.30;99.90
2999;DHT22;1509;51.964;7.628;2023-04-06T00:22:48;5.30;99.90
2999;DHT22;1509;51.964;7.628;2023-04-06T00:25:14;5.30;99.90
2999;DHT22;1509;51.964;7.628;2023-04-06T00:27:41;5.30;99.90
2999;DHT22;1509;51.964;7.628;2023-04-06T00:30:07;5.20;99.90
2999;DHT22;1509;51.964;7.628;2023-04-06T00:32:34;5.20;99.90
2999;DHT22;1509;51.964;7.628;2023-04-06T00:35:01;5.20;99.90
2999;DHT22;1509;51.964;7.628;2023-04-06T00:37:27;5.20;99.90
2999;DHT22;1509;51.964;7.628;2023-04-06T00:39:52;5.30;99.90
2999;DHT22;1509;51.964;7.628;2023-04-06T00:42:18;5.30;99.90
2999;DHT22;1509;51.964;7.628;2023-04-06T00:44:52;5.40;99.90
2999;DHT22;1509;51.964;7.628;2023-04-06T00:47:18;5.20;99.90
2999;DHT22;1509;51.964;7.628;2023-04-06T00:49:43;5.20;99.90
2999;DHT22;1509;51.964;7.628;2023-04-06T00:52:09;5.20;99.90
2999;DHT22;1509;51.964;7.628;2023-04-06T00:54:35;5.10;99.90
2999;DHT22;1509;51.964;7.628;2023-04-06T00:57:00;5.10;99.90
2999;DHT22;1509;51.964;7.628;2023-04-06T00:59:27;5.00;99.90
2999;DHT22;1509;51.964;7.628;2023-04-06T01:01:53;4.80;99.90
2999;DHT22;1509;51.964;7.628;2023-04-06T01:04:19;4.70;99.90
2999;DHT22;1509;51.964;7.628;2023-04-06T01:06:45;4.80;99.90
2999;DHT22;1509;51.964;7.628;2023-04-06T01:09:11;4.80;99.90
2999;DHT22;1509;51.964;7.628;2023-04-06T01:11:36;4.50;99.90
2999;DHT22;1509;51.964;7.628;2023-04-06T01:14:03;4.70;99.90
2999;DHT22;1509;51.964;7.628;2023-04-06T01:16:28;4.60;99.90
2999;DHT22;1509;51.964;7.628;2023-04-06T01:18:54;4.60;99.90
2999;DHT22;1509;51.964;7.628;2023-04-06T01:21:20;4.60;99.90
2999;DHT22;1509;51.964;7.628;2023-04-06T01:23:46;4.60;99.90
2999;DHT22;1509;51.964;7.628;2023-04-06T01:26:12;4.50;99.90
2999;DHT22;1509;51.964;7.628;2023-04-06T01:28:38;4.50;99.90
2999;DHT22;1509;51.964;7.628;2023-04-06T01:31:08;4.50;99.90
2999;DHT22;1509;51.964;7.628;2023-04-06T01:33:33;4.60;99.90
2999;DHT22;1509;51.964;7.628;2023-04-06T01:36:00;4.30;99.90
2999;DHT22;1509;51.964;7.628;2023-04-06T01:38:25;4.40;99.90
2999;DHT22;1509;51.964;7.628;2023-04-06T01:40:52;4.30;99.90
2999;DHT22;1509;51.964;7.628;2023-04-06T01:43:18;4.20;99.90
2999;DHT22;1509;51.964;7.628;2023-04-06T01:45:44;4.20;99.90
2999;DHT22;1509;51.964;7.628;2023-04-06T01:48:09;4.30;99.90
2999;DHT22;1509;51.964;7.628;2023-04-06T01:50:35;4.50;99.90
2999;DHT22;1509;51.964;7.628;2023-04-06T01:53:01;4.30;99.90
2999;DHT22;1509;51.964;7.628;2023-04-06T01:55:27;4.30;99.90
2999;DHT22;1509;51.964;7.628;2023-04-06T01:57:53;4.20;99.90
2999;DHT22;1509;51.964;7.628;2023-04-06T02:00:18;4.50;99.90
2999;DHT22;1509;51.964;7.628;2023-04-06T02:02:44;4.20;99.90
2999;DHT22;1509;51.964;7.628;2023-04-06T02:05:10;4.20;99.90
2999;DHT22;1509;51.964;7.628;2023-04-06T02:07:36;4.30;99.90
2999;DHT22;1509;51.964;7.628;2023-04-06T02:10:02;4.20;99.90
2999;DHT22;1509;51.964;7.628;2023-04-06T02:12:28;4.20;99.90
2999;DHT22;1509;51.964;7.628;2023-04-06T02:14:54;4.10;99.90
2999;DHT22;1509;51.964;7.628;2023-04-06T02:17:19;4.20;99.90
2999;DHT22;1509;51.964;7.628;2023-04-06T02:19:45;4.10;99.90
2999;DHT22;1509;51.964;7.628;2023-04-06T02:22:11;4.00;99.90
2999;DHT22;1509;51.964;7.628;2023-04-06T02:24:37;4.00;99.90
2999;DHT22;1509;51.964;7.628;2023-04-06T02:27:03;4.10;99.90
2999;DHT22;1509;51.964;7.628;2023-04-06T02:29:28;3.90;99.90
2999;DHT22;1509;51.964;7.628;2023-04-06T02:31:54;3.90;99.90
2999;DHT22;1509;51.964;7.628;2023-04-06T02:34:20;3.90;99.90
2999;DHT22;1509;51.964;7.628;2023-04-06T02:36:48;3.90;99.90
2999;DHT22;1509;51.964;7.628;2023-04-06T02:39:13;3.80;99.90
2999;DHT22;1509;51.964;7.628;2023-04-06T02:41:39;3.80;99.90
2999;DHT22;1509;51.964;7.628;2023-04-06T02:44:07;3.90;99.90
2999;DHT22;1509;51.964;7.628;2023-04-06T02:46:34;3.80;99.90
2999;DHT22;1509;51.964;7.628;2023-04-06T02:49:00;3.70;99.90
2999;DHT22;1509;51.964;7.628;2023-04-06T02:51:26;3.80;99.90
2999;DHT22;1509;51.964;7.628;2023-04-06T02:53:52;3.80;99.90
2999;DHT22;1509;51.964;7.628;2023-04-06T02:56:18;3.80;99.90
2999;DHT22;1509;51.964;7.628;2023-04-06T02:58:46;3.80;99.90
2999;DHT22;1509;51.964;7.628;2023-04-06T03:01:12;3.70;99.90
2999;DHT22;1509;51.964;7.628;2023-04-06T03:03:37;3.60;99.90
2999;DHT22;1509;51.964;7.628;2023-04-06T03:06:03;3.70;99.90
2999;DHT22;1509;51.964;7.628;2023-04-06T03:08:29;3.70;99.90
2999;DHT22;1509;51.964;7.628;2023-04-06T03:10:54;3.70;99.90
2999;DHT22;1509;51.964;7.628;2023-04-06T03:13:21;3.70;99.90
2999;DHT22;1509;51.964;7.628;2023-04-06T03:15:47;3.60;99.90
2999;DHT22;1509;51.964;7.628;2023-04-06T03:18:13;3.60;99.90
2999;DHT22;1509;51.964;7.628;2023-04-06T03:20:39;3.60;99.90
2999;DHT22;1509;51.964;7.628;2023-04-06T03:23:04;3.50;99.90
2999;DHT22;1509;51.964;7.628;2023-04-06T03:25:31;3.40;99.90
2999;DHT22;1509;51.964;7.628;2023-04-06T03:27:57;3.50;99.90
2999;DHT22;1509;51.964;7.628;2023-04-06T03:30:22;3.40;99.90
2999;DHT22;1509;51.964;7.628;2023-04-06T03:32:48;3.40;99.90
2999;DHT22;1509;51.964;7.628;2023-04-06T03:35:14;3.30;99.90
2999;DHT22;1509;51.964;7.628;2023-04-06T03:37:39;3.30;99.90
2999;DHT22;1509;51.964;7.628;2023-04-06T03:40:06;3.30;99.90
2999;DHT22;1509;51.964;7.628;2023-04-06T03:42:32;3.20;99.90
2999;DHT22;1509;51.964;7.628;2023-04-06T03:44:58;3.20;99.90
2999;DHT22;1509;51.964;7.628;2023-04-06T03:47:24;3.20;99.90
2999;DHT22;1509;51.964;7.628;2023-04-06T03:49:50;3.20;99.90
2999;DHT22;1509;51.964;7.628;2023-04-06T03:52:16;3.20;99.90
2999;DHT22;1509;51.964;7.628;2023-04-06T03:54:42;3.10;99.90
2999;DHT22;1509;51.964;7.628;2023-04-06T03:57:07;3.20;99.90
2999;DHT22;1509;51.964;7.628;2023-04-06T03:59:33;3.20;99.90
2999;DHT22;1509;51.964;7.628;2023-04-06T04:01:59;3.10;99.90
2999;DHT22;1509;51.964;7.628;2023-04-06T04:04:24;3.10;99.90
2999;DHT22;1509;51.964;7.628;2023-04-06T04:06:50;3.10;99.90
2999;DHT22;1509;51.964;7.628;2023-04-06T04:09:16;3.00;99.90
2999;DHT22;1509;51.964;7.628;2023-04-06T04:11:41;3.00;99.90
2999;DHT22;1509;51.964;7.628;2023-04-06T04:14:07;2.90;99.90
2999;DHT22;1509;51.964;7.628;2023-04-06T04:16:33;2.80;99.90
2999;DHT22;1509;51.964;7.628;2023-04-06T04:18:59;2.90;99.90
2999;DHT22;1509;51.964;7.628;2023-04-06T04:21:24;2.90;99.90
2999;DHT22;1509;51.964;7.628;2023-04-06T04:23:51;2.80;99.90
2999;DHT22;1509;51.964;7.628;2023-04-06T04:26:18;2.80;99.90
2999;DHT22;1509;51.964;7.628;2023-04-06T04:28:44;2.80;99.90
2999;DHT22;1509;51.964;7.628;2023-04-06T04:31:09;2.70;99.90
2999;DHT22;1509;51.964;7.628;2023-04-06T04:33:35;2.70;99.90
2999;DHT22;1509;51.964;7.628;2023-04-06T04:36:01;2.60;99.90
2999;DHT22;1509;51.964;7.628;2023-04-06T04:38:27;2.50;99.90
2999;DHT22;1509;51.964;7.628;2023-04-06T04:40:52;2.50;99.90
2999;DHT22;1509;51.964;7.628;2023-04-06T04:43:18;2.60;99.90
2999;DHT22;1509;51.964;7.628;2023-04-06T04:45:44;2.40;99.90
2999;DHT22;1509;51.964;7.628;2023-04-06T04:48:09;2.40;99.90
2999;DHT22;1509;51.964;7.628;2023-04-06T04:50:35;2.30;99.90
2999;DHT22;1509;51.964;7.628;2023-04-06T04:53:01;2.40;99.90
2999;DHT22;1509;51.964;7.628;2023-04-06T04:55:27;2.40;99.90
2999;DHT22;1509;51.964;7.628;2023-04-06T04:57:53;2.40;99.90
2999;DHT22;1509;51.964;7.628;2023-04-06T05:00:18;2.20;99.90
2999;DHT22;1509;51.964;7.628;2023-04-06T05:02:45;2.20;99.90
2999;DHT22;1509;51.964;7.628;2023-04-06T05:05:10;2.20;99.90
2999;DHT22;1509;51.964;7.628;2023-04-06T05:07:36;2.40;99.90
2999;DHT22;1509;51.964;7.628;2023-04-06T05:10:02;2.40;99.90
2999;DHT22;1509;51.964;7.628;2023-04-06T05:12:28;2.30;99.90
2999;DHT22;1509;51.964;7.628;2023-04-06T05:14:54;2.40;99.90
2999;DHT22;1509;51.964;7.628;2023-04-06T05:17:20;2.40;99.90
2999;DHT22;1509;51.964;7.628;2023-04-06T05:19:46;2.40;99.90
2999;DHT22;1509;51.964;7.628;2023-04-06T05:22:11;2.40;99.90
2999;DHT22;1509;51.964;7.628;2023-04-06T05:24:39;2.20;99.90
2999;DHT22;1509;51.964;7.628;2023-04-06T05:27:05;2.30;99.90
2999;DHT22;1509;51.964;7.628;2023-04-06T05:29:34;2.40;99.90
2999;DHT22;1509;51.964;7.628;2023-04-06T05:32:01;2.40;99.90
2999;DHT22;1509;51.964;7.628;2023-04-06T05:34:27;2.50;99.90
2999;DHT22;1509;51.964;7.628;2023-04-06T05:36:52;2.40;99.90
2999;DHT22;1509;51.964;7.628;2023-04-06T05:39:18;2.40;99.90
2999;DHT22;1509;51.964;7.628;2023-04-06T05:41:44;2.40;99.90
2999;DHT22;1509;51.964;7.628;2023-04-06T05:44:10;2.50;99.90
2999;DHT22;1509;51.964;7.628;2023-04-06T05:46:38;2.50;99.90
2999;DHT22;1509;51.964;7.628;2023-04-06T05:49:04;2.50;99.90
2999;DHT22;1509;51.964;7.628;2023-04-06T05:51:30;2.60;99.90
2999;DHT22;1509;51.964;7.628;2023-04-06T05:53:55;2.70;99.90
2999;DHT22;1509;51.964;7.628;2023-04-06T05:56:21;2.70;99.90
2999;DHT22;1509;51.964;7.628;2023-04-06T05:58:49;2.80;99.90
2999;DHT22;1509;51.964;7.628;2023-04-06T06:01:15;2.90;99.90
2999;DHT22;1509;51.964;7.628;2023-04-06T06:03:43;3.00;99.90
2999;DHT22;1509;51.964;7.628;2023-04-06T06:06:09;3.10;99.90
2999;DHT22;1509;51.964;7.628;2023-04-06T06:08:35;3.20;99.90
2999;DHT22;1509;51.964;7.628;2023-04-06T06:11:02;3.20;99.90
2999;DHT22;1509;51.964;7.628;2023-04-06T06:13:27;3.30;99.90
2999;DHT22;1509;51.964;7.628;2023-04-06T06:15:53;3.40;99.90
2999;DHT22;1509;51.964;7.628;2023-04-06T06:18:19;3.50;99.90
2999;DHT22;1509;51.964;7.628;2023-04-06T06:20:45;3.50;99.90
2999;DHT22;1509;51.964;7.628;2023-04-06T06:23:11;3.60;99.90
2999;DHT22;1509;51.964;7.628;2023-04-06T06:25:36;3.50;99.90
2999;DHT22;1509;51.964;7.628;2023-04-06T06:28:02;3.40;99.90
2999;DHT22;1509;51.964;7.628;2023-04-06T06:30:28;3.40;99.90
2999;DHT22;1509;51.964;7.628;2023-04-06T06:32:53;3.50;99.90
2999;DHT22;1509;51.964;7.628;2023-04-06T06:35:19;3.40;99.90
2999;DHT22;1509;51.964;7.628;2023-04-06T06:37:45;3.20;99.90
2999;DHT22;1509;51.964;7.628;2023-04-06T06:40:11;3.40;99.90
2999;DHT22;1509;51.964;7.628;2023-04-06T06:42:38;3.40;99.90
2999;DHT22;1509;51.964;7.628;2023-04-06T06:45:06;3.60;99.90
2999;DHT22;1509;51.964;7.628;2023-04-06T06:47:32;3.60;99.90
2999;DHT22;1509;51.964;7.628;2023-04-06T06:49:58;3.80;99.90
2999;DHT22;1509;51.964;7.628;2023-04-06T06:52:23;3.80;99.90
2999;DHT22;1509;51.964;7.628;2023-04-06T06:54:49;3.90;99.90
2999;DHT22;1509;51.964;7.628;2023-04-06T06:57:15;3.90;99.90
2999;DHT22;1509;51.964;7.628;2023-04-06T06:59:41;4.00;99.90
2999;DHT22;1509;51.964;7.628;2023-04-06T07:02:06;4.10;99.90
2999;DHT22;1509;51.964;7.628;2023-04-06T07:04:32;4.20;99.90
2999;DHT22;1509;51.964;7.628;2023-04-06T07:06:58;4.30;99.90
2999;DHT22;1509;51.964;7.628;2023-04-06T07:09:23;4.40;99.90
2999;DHT22;1509;51.964;7.628;2023-04-06T07:11:49;4.50;99.90
2999;DHT22;1509;51.964;7.628;2023-04-06T07:14:15;4.50;99.90
2999;DHT22;1509;51.964;7.628;2023-04-06T07:16:41;4.60;99.90
2999;DHT22;1509;51.964;7.628;2023-04-06T07:21:34;4.90;99.90
2999;DHT22;1509;51.964;7.628;2023-04-06T07:24:03;4.90;99.90
2999;DHT22;1509;51.964;7.628;2023-04-06T07:26:29;5.10;99.90
2999;DHT22;1509;51.964;7.628;2023-04-06T07:28:54;5.30;99.90
2999;DHT22;1509;51.964;7.628;2023-04-06T07:31:20;5.40;99.90
2999;DHT22;1509;51.964;7.628;2023-04-06T07:33:46;5.60;99.90
2999;DHT22;1509;51.964;7.628;2023-04-06T07:36:12;5.70;99.90
2999;DHT22;1509;51.964;7.628;2023-04-06T07:38:37;5.80;99.90
2999;DHT22;1509;51.964;7.628;2023-04-06T07:41:03;5.90;99.90
2999;DHT22;1509;51.964;7.628;2023-04-06T07:43:29;6.00;99.90
2999;DHT22;1509;51.964;7.628;2023-04-06T07:45:56;6.00;99.90
2999;DHT22;1509;51.964;7.628;2023-04-06T07:48:22;6.10;99.90
2999;DHT22;1509;51.964;7.628;2023-04-06T07:50:48;6.30;99.90
2999;DHT22;1509;51.964;7.628;2023-04-06T07:53:17;6.40;99.90
2999;DHT22;1509;51.964;7.628;2023-04-06T07:55:42;6.50;99.90
2999;DHT22;1509;51.964;7.628;2023-04-06T07:58:11;6.60;99.90
2999;DHT22;1509;51.964;7.628;2023-04-06T08:00:37;6.70;99.90
2999;DHT22;1509;51.964;7.628;2023-04-06T08:03:02;6.90;99.90
2999;DHT22;1509;51.964;7.628;2023-04-06T08:05:28;7.00;99.90
2999;DHT22;1509;51.964;7.628;2023-04-06T08:07:54;7.20;99.90
2999;DHT22;1509;51.964;7.628;2023-04-06T08:10:20;7.30;99.90
2999;DHT22;1509;51.964;7.628;2023-04-06T08:12:45;7.50;99.90
2999;DHT22;1509;51.964;7.628;2023-04-06T08:15:11;7.60;99.90
2999;DHT22;1509;51.964;7.628;2023-04-06T08:17:37;7.90;99.90
2999;DHT22;1509;51.964;7.628;2023-04-06T08:20:02;8.00;99.90
2999;DHT22;1509;51.964;7.628;2023-04-06T08:22:29;8.00;99.90
2999;DHT22;1509;51.964;7.628;2023-04-06T08:24:54;8.00;99.90
2999;DHT22;1509;51.964;7.628;2023-04-06T08:27:20;8.10;99.90
2999;DHT22;1509;51.964;7.628;2023-04-06T08:29:46;8.10;99.90
2999;DHT22;1509;51.964;7.628;2023-04-06T08:32:12;8.30;99.90
2999;DHT22;1509;51.964;7.628;2023-04-06T08:34:38;8.60;99.90
2999;DHT22;1509;51.964;7.628;2023-04-06T08:37:03;9.30;99.90
2999;DHT22;1509;51.964;7.628;2023-04-06T08:39:30;10.20;99.90
2999;DHT22;1509;51.964;7.628;2023-04-06T08:41:56;12.20;99.90
2999;DHT22;1509;51.964;7.628;2023-04-06T08:44:23;13.40;99.90
2999;DHT22;1509;51.964;7.628;2023-04-06T08:46:49;15.00;99.90
2999;DHT22;1509;51.964;7.628;2023-04-06T08:49:16;16.10;99.90
2999;DHT22;1509;51.964;7.628;2023-04-06T08:51:42;17.20;99.40
2999;DHT22;1509;51.964;7.628;2023-04-06T08:54:07;17.70;97.40
2999;DHT22;1509;51.964;7.628;2023-04-06T08:56:36;17.80;96.70
2999;DHT22;1509;51.964;7.628;2023-04-06T08:59:03;17.80;96.10
2999;DHT22;1509;51.964;7.628;2023-04-06T09:01:29;17.60;95.10
2999;DHT22;1509;51.964;7.628;2023-04-06T09:03:57;17.60;94.90
2999;DHT22;1509;51.964;7.628;2023-04-06T09:06:24;18.20;95.00
2999;DHT22;1509;51.964;7.628;2023-04-06T09:08:52;18.60;94.40
2999;DHT22;1509;51.964;7.628;2023-04-06T09:11:18;19.40;93.80
2999;DHT22;1509;51.964;7.628;2023-04-06T09:13:46;19.70;93.00
2999;DHT22;1509;51.964;7.628;2023-04-06T09:16:14;20.20;92.50
2999;DHT22;1509;51.964;7.628;2023-04-06T09:18:41;20.70;91.50
2999;DHT22;1509;51.964;7.628;2023-04-06T09:21:08;20.20;91.40
2999;DHT22;1509;51.964;7.628;2023-04-06T09:23:34;20.60;91.20
2999;DHT22;1509;51.964;7.628;2023-04-06T09:26:18;21.40;91.30
2999;DHT22;1509;51.964;7.628;2023-04-06T09:31:32;21.90;89.70
2999;DHT22;1509;51.964;7.628;2023-04-06T09:34:02;22.90;88.60
2999;DHT22;1509;51.964;7.628;2023-04-06T09:36:37;22.80;88.20
2999;DHT22;1509;51.964;7.628;2023-04-06T09:39:07;22.40;84.30
2999;DHT22;1509;51.964;7.628;2023-04-06T09:41:36;21.50;84.60
2999;DHT22;1509;51.964;7.628;2023-04-06T09:44:11;21.50;83.00
2999;DHT22;1509;51.964;7.628;2023-04-06T09:46:38;20.20;83.30
2999;DHT22;1509;51.964;7.628;2023-04-06T09:49:08;20.00;83.80
2999;DHT22;1509;51.964;7.628;2023-04-06T09:51:41;20.70;84.10
2999;DHT22;1509;51.964;7.628;2023-04-06T09:54:11;20.70;83.30
2999;DHT22;1509;51.964;7.628;2023-04-06T09:56:47;21.10;83.60
2999;DHT22;1509;51.964;7.628;2023-04-06T09:59:18;21.60;83.90
2999;DHT22;1509;51.964;7.628;2023-04-06T10:01:48;21.90;81.40
2999;DHT22;1509;51.964;7.628;2023-04-06T10:04:43;20.30;80.70
2999;DHT22;1509;51.964;7.628;2023-04-06T10:07:14;21.20;82.70
2999;DHT22;1509;51.964;7.628;2023-04-06T10:09:42;22.10;82.40
2999;DHT22;1509;51.964;7.628;2023-04-06T10:12:09;22.80;81.60
2999;DHT22;1509;51.964;7.628;2023-04-06T10:14:36;22.60;80.30
2999;DHT22;1509;51.964;7.628;2023-04-06T10:17:16;23.20;80.00
2999;DHT22;1509;51.964;7.628;2023-04-06T10:19:55;23.20;79.30
2999;DHT22;1509;51.964;7.628;2023-04-06T10:22:36;22.00;78.00
2999;DHT22;1509;51.964;7.628;2023-04-06T10:27:50;21.10;78.50
2999;DHT22;1509;51.964;7.628;2023-04-06T10:30:28;21.20;79.40
2999;DHT22;1509;51.964;7.628;2023-04-06T10:33:17;21.60;77.50
2999;DHT22;1509;51.964;7.628;2023-04-06T10:35:51;22.20;79.80
2999;DHT22;1509;51.964;7.628;2023-04-06T10:38:17;22.70;79.10
2999;DHT22;1509;51.964;7.628;2023-04-06T10:40:48;23.10;77.20
2999;DHT22;1509;51.964;7.628;2023-04-06T10:43:19;22.50;73.90
2999;DHT22;1509;51.964;7.628;2023-04-06T10:45:45;21.50;71.80
2999;DHT22;1509;51.964;7.628;2023-04-06T10:48:19;21.30;72.20
2999;DHT22;1509;51.964;7.628;2023-04-06T10:50:51;22.10;71.60
2999;DHT22;1509;51.964;7.628;2023-04-06T10:53:27;22.50;72.60
2999;DHT22;1509;51.964;7.628;2023-04-06T10:55:56;21.40;71.40
2999;DHT22;1509;51.964;7.628;2023-04-06T10:58:26;21.10;70.60
2999;DHT22;1509;51.964;7.628;2023-04-06T11:00:53;19.90;72.00
2999;DHT22;1509;51.964;7.628;2023-04-06T11:03:19;18.90;71.60
2999;DHT22;1509;51.964;7.628;2023-04-06T11:05:47;17.90;68.60
2999;DHT22;1509;51.964;7.628;2023-04-06T11:11:16;17.30;70.60
2999;DHT22;1509;51.964;7.628;2023-04-06T11:14:04;16.90;72.00
2999;DHT22;1509;51.964;7.628;2023-04-06T11:16:49;16.80;73.00
2999;DHT22;1509;51.964;7.628;2023-04-06T11:19:21;16.80;74.10
2999;DHT22;1509;51.964;7.628;2023-04-06T11:21:49;16.10;74.10
2999;DHT22;1509;51.964;7.628;2023-04-06T11:26:48;15.50;77.00
2999;DHT22;1509;51.964;7.628;2023-04-06T11:29:21;16.00;77.50
2999;DHT22;1509;51.964;7.628;2023-04-06T11:31:50;16.30;75.50
2999;DHT22;1509;51.964;7.628;2023-04-06T11:34:21;15.80;74.60
2999;DHT22;1509;51.964;7.628;2023-04-06T11:36:59;15.80;75.30
2999;DHT22;1509;51.964;7.628;2023-04-06T11:39:28;16.30;74.00
2999;DHT22;1509;51.964;7.628;2023-04-06T11:41:59;16.50;69.50
2999;DHT22;1509;51.964;7.628;2023-04-06T11:44:44;16.40;68.80
2999;DHT22;1509;51.964;7.628;2023-04-06T11:47:16;16.50;69.50
2999;DHT22;1509;51.964;7.628;2023-04-06T11:49:43;17.30;71.80
2999;DHT22;1509;51.964;7.628;2023-04-06T11:52:28;18.20;74.00
2999;DHT22;1509;51.964;7.628;2023-04-06T11:54:57;19.20;73.90
2999;DHT22;1509;51.964;7.628;2023-04-06T11:57:23;19.20;73.00
2999;DHT22;1509;51.964;7.628;2023-04-06T12:00:04;18.30;66.90
2999;DHT22;1509;51.964;7.628;2023-04-06T12:02:30;18.20;67.70
2999;DHT22;1509;51.964;7.628;2023-04-06T12:04:57;17.70;68.80
2999;DHT22;1509;51.964;7.628;2023-04-06T12:07:26;16.80;68.90
2999;DHT22;1509;51.964;7.628;2023-04-06T12:09:54;16.30;69.40
2999;DHT22;1509;51.964;7.628;2023-04-06T12:12:22;16.30;71.20
2999;DHT22;1509;51.964;7.628;2023-04-06T12:14:56;16.90;70.80
2999;DHT22;1509;51.964;7.628;2023-04-06T12:20:58;17.50;71.90
2999;DHT22;1509;51.964;7.628;2023-04-06T12:23:47;17.90;72.50
2999;DHT22;1509;51.964;7.628;2023-04-06T12:26:23;18.60;71.90
2999;DHT22;1509;51.964;7.628;2023-04-06T12:28:49;18.90;71.00
2999;DHT22;1509;51.964;7.628;2023-04-06T12:31:22;18.70;66.90
2999;DHT22;1509;51.964;7.628;2023-04-06T12:34:03;18.00;66.60
2999;DHT22;1509;51.964;7.628;2023-04-06T12:36:31;17.50;66.20
2999;DHT22;1509;51.964;7.628;2023-04-06T12:39:00;17.00;67.10
2999;DHT22;1509;51.964;7.628;2023-04-06T12:41:36;17.00;66.00
2999;DHT22;1509;51.964;7.628;2023-04-06T12:44:06;16.90;66.70
2999;DHT22;1509;51.964;7.628;2023-04-06T12:46:39;17.50;66.80
2999;DHT22;1509;51.964;7.628;2023-04-06T12:49:12;18.30;68.10
2999;DHT22;1509;51.964;7.628;2023-04-06T12:51:38;18.10;66.40
2999;DHT22;1509;51.964;7.628;2023-04-06T12:54:09;17.40;66.40
2999;DHT22;1509;51.964;7.628;2023-04-06T12:56:37;16.50;66.00
2999;DHT22;1509;51.964;7.628;2023-04-06T12:59:03;16.20;67.20
2999;DHT22;1509;51.964;7.628;2023-04-06T13:01:37;16.50;67.30
2999;DHT22;1509;51.964;7.628;2023-04-06T13:04:02;16.40;68.20
2999;DHT22;1509;51.964;7.628;2023-04-06T13:06:28;16.70;68.80
2999;DHT22;1509;51.964;7.628;2023-04-06T13:08:57;16.80;69.20
2999;DHT22;1509;51.964;7.628;2023-04-06T13:11:30;16.50;69.20
2999;DHT22;1509;51.964;7.628;2023-04-06T13:13:55;16.40;69.30
2999;DHT22;1509;51.964;7.628;2023-04-06T13:19:56;16.00;70.20
2999;DHT22;1509;51.964;7.628;2023-04-06T13:22:22;16.00;71.80
2999;DHT22;1509;51.964;7.628;2023-04-06T13:24:52;15.70;72.50
2999;DHT22;1509;51.964;7.628;2023-04-06T13:27:18;15.70;71.40
2999;DHT22;1509;51.964;7.628;2023-04-06T13:29:44;15.30;72.70
2999;DHT22;1509;51.964;7.628;2023-04-06T13:32:10;15.40;73.70
2999;DHT22;1509;51.964;7.628;2023-04-06T13:34:46;15.50;74.10
2999;DHT22;1509;51.964;7.628;2023-04-06T13:37:13;15.40;74.60
2999;DHT22;1509;51.964;7.628;2023-04-06T13:39:39;15.30;75.30
2999;DHT22;1509;51.964;7.628;2023-04-06T13:42:07;15.30;76.40
2999;DHT22;1509;51.964;7.628;2023-04-06T13:44:35;15.30;75.30
2999;DHT22;1509;51.964;7.628;2023-04-06T13:47:03;15.10;76.00
2999;DHT22;1509;51.964;7.628;2023-04-06T13:49:44;15.10;75.60
2999;DHT22;1509;51.964;7.628;2023-04-06T13:52:30;14.90;76.50
2999;DHT22;1509;51.964;7.628;2023-04-06T13:55:12;14.80;77.20
2999;DHT22;1509;51.964;7.628;2023-04-06T13:57:41;14.80;77.70
2999;DHT22;1509;51.964;7.628;2023-04-06T14:00:09;14.70;77.80
2999;DHT22;1509;51.964;7.628;2023-04-06T14:02:47;14.50;78.60
2999;DHT22;1509;51.964;7.628;2023-04-06T14:05:13;14.20;78.80
2999;DHT22;1509;51.964;7.628;2023-04-06T14:07:39;14.30;78.80
2999;DHT22;1509;51.964;7.628;2023-04-06T14:10:13;14.50;78.60
2999;DHT22;1509;51.964;7.628;2023-04-06T14:12:44;14.50;79.40
2999;DHT22;1509;51.964;7.628;2023-04-06T14:15:14;14.60;81.80
2999;DHT22;1509;51.964;7.628;2023-04-06T14:17:40;14.70;80.00
2999;DHT22;1509;51.964;7.628;2023-04-06T14:20:09;14.50;79.30
2999;DHT22;1509;51.964;7.628;2023-04-06T14:22:41;14.40;79.90
2999;DHT22;1509;51.964;7.628;2023-04-06T14:25:08;14.50;80.60
2999;DHT22;1509;51.964;7.628;2023-04-06T14:27:33;14.40;80.70
2999;DHT22;1509;51.964;7.628;2023-04-06T14:33:48;14.40;81.50
2999;DHT22;1509;51.964;7.628;2023-04-06T14:36:14;14.60;82.50
2999;DHT22;1509;51.964;7.628;2023-04-06T14:38:39;14.60;82.30
2999;DHT22;1509;51.964;7.628;2023-04-06T14:41:05;14.70;83.00
2999;DHT22;1509;51.964;7.628;2023-04-06T14:43:34;14.60;84.10
2999;DHT22;1509;51.964;7.628;2023-04-06T14:46:00;14.70;84.60
2999;DHT22;1509;51.964;7.628;2023-04-06T14:48:26;14.80;85.70
2999;DHT22;1509;51.964;7.628;2023-04-06T14:50:55;14.70;88.00
2999;DHT22;1509;51.964;7.628;2023-04-06T14:53:24;14.60;86.90
2999;DHT22;1509;51.964;7.628;2023-04-06T14:55:50;14.60;87.00
2999;DHT22;1509;51.964;7.628;2023-04-06T14:58:20;14.40;87.40
2999;DHT22;1509;51.964;7.628;2023-04-06T15:00:49;14.40;88.00
2999;DHT22;1509;51.964;7.628;2023-04-06T15:03:19;14.30;89.40
2999;DHT22;1509;51.964;7.628;2023-04-06T15:05:53;14.10;90.20
2999;DHT22;1509;51.964;7.628;2023-04-06T15:08:19;14.00;90.40
2999;DHT22;1509;51.964;7.628;2023-04-06T15:10:48;14.20;90.70
2999;DHT22;1509;51.964;7.628;2023-04-06T15:13:21;14.10;90.60
2999;DHT22;1509;51.964;7.628;2023-04-06T15:15:50;14.10;91.00
2999;DHT22;1509;51.964;7.628;2023-04-06T15:18:16;14.20;91.20
2999;DHT22;1509;51.964;7.628;2023-04-06T15:20:42;14.20;91.60
2999;DHT22;1509;51.964;7.628;2023-04-06T15:23:09;14.10;91.90
2999;DHT22;1509;51.964;7.628;2023-04-06T15:25:34;14.00;92.50
2999;DHT22;1509;51.964;7.628;2023-04-06T15:28:00;13.80;92.80
2999;DHT22;1509;51.964;7.628;2023-04-06T15:30:26;13.80;93.00
2999;DHT22;1509;51.964;7.628;2023-04-06T15:32:55;13.80;93.10
2999;DHT22;1509;51.964;7.628;2023-04-06T15:35:21;13.90;93.40
2999;DHT22;1509;51.964;7.628;2023-04-06T15:37:47;13.60;93.70
2999;DHT22;1509;51.964;7.628;2023-04-06T15:40:13;13.50;93.80
2999;DHT22;1509;51.964;7.628;2023-04-06T15:42:41;13.50;94.10
2999;DHT22;1509;51.964;7.628;2023-04-06T15:45:09;13.40;94.40
2999;DHT22;1509;51.964;7.628;2023-04-06T15:47:43;13.50;94.90
2999;DHT22;1509;51.964;7.628;2023-04-06T15:50:09;13.40;95.30
2999;DHT22;1509;51.964;7.628;2023-04-06T15:52:35;13.30;95.60
2999;DHT22;1509;51.964;7.628;2023-04-06T15:55:06;13.30;95.90
2999;DHT22;1509;51.964;7.628;2023-04-06T15:57:32;13.20;96.20
2999;DHT22;1509;51.964;7.628;2023-04-06T15:59:58;13.20;96.30
2999;DHT22;1509;51.964;7.628;2023-04-06T16:02:24;13.30;96.50
2999;DHT22;1509;51.964;7.628;2023-04-06T16:04:57;13.40;96.70
2999;DHT22;1509;51.964;7.628;2023-04-06T16:07:23;13.50;96.60
2999;DHT22;1509;51.964;7.628;2023-04-06T16:09:51;13.40;96.80
2999;DHT22;1509;51.964;7.628;2023-04-06T16:12:18;13.10;97.10
2999;DHT22;1509;51.964;7.628;2023-04-06T16:14:44;13.00;97.50
2999;DHT22;1509;51.964;7.628;2023-04-06T16:17:10;13.00;97.70
2999;DHT22;1509;51.964;7.628;2023-04-06T16:19:36;13.10;97.80
2999;DHT22;1509;51.964;7.628;2023-04-06T16:22:02;13.10;98.00
2999;DHT22;1509;51.964;7.628;2023-04-06T16:24:28;13.00;98.30
2999;DHT22;1509;51.964;7.628;2023-04-06T16:26:54;13.00;98.70
2999;DHT22;1509;51.964;7.628;2023-04-06T16:29:20;12.90;99.20
2999;DHT22;1509;51.964;7.628;2023-04-06T16:31:47;12.90;99.20
2999;DHT22;1509;51.964;7.628;2023-04-06T16:34:13;12.70;99.50
2999;DHT22;1509;51.964;7.628;2023-04-06T16:36:39;12.70;99.90